createdAt,value
2019-03-16T00:00:36.532Z,5.40
2019-03-16T00:03:03.260Z,4.47
2019-03-16T00:05:29.975Z,4.80
2019-03-16T00:07:56.777Z,5.20
2019-03-16T00:10:23.491Z,5.63
2019-03-16T00:12:50.195Z,4.27
2019-03-16T00:15:17.005Z,6.33
2019-03-16T00:17:43.720Z,4.07
2019-03-16T00:20:10.445Z,5.53
2019-03-16T00:22:37.231Z,3.00
2019-03-16T00:25:03.924Z,4.27
2019-03-16T00:27:30.555Z,4.03
2019-03-16T00:29:57.377Z,3.17
2019-03-16T00:32:24.096Z,5.10
2019-03-16T00:34:50.788Z,3.37
2019-03-16T00:37:17.508Z,4.47
2019-03-16T00:39:44.221Z,4.13
2019-03-16T00:42:10.913Z,3.53
2019-03-16T00:44:37.625Z,4.43
2019-03-16T00:47:04.313Z,3.13
2019-03-16T00:49:30.928Z,3.57
2019-03-16T00:51:57.699Z,3.53
2019-03-16T00:54:24.424Z,3.50
2019-03-16T00:56:51.144Z,3.77
2019-03-16T00:59:18.376Z,4.10
2019-03-16T01:01:45.105Z,4.33
2019-03-16T01:04:11.825Z,3.53
2019-03-16T01:06:38.612Z,2.90
2019-03-16T01:09:05.336Z,4.83
2019-03-16T01:11:32.051Z,4.30
2019-03-16T01:13:58.832Z,2.83
2019-03-16T01:16:25.526Z,4.47
2019-03-16T01:18:52.215Z,2.63
2019-03-16T01:21:18.918Z,4.17
2019-03-16T01:23:45.636Z,3.27
2019-03-16T01:26:12.392Z,3.20
2019-03-16T01:28:39.182Z,2.37
2019-03-16T01:31:05.912Z,3.53
2019-03-16T01:33:32.610Z,3.80
2019-03-16T01:35:59.406Z,3.03
2019-03-16T01:38:26.092Z,3.30
2019-03-16T01:40:52.784Z,5.17
2019-03-16T01:43:19.471Z,4.13
2019-03-16T01:45:46.196Z,3.43
2019-03-16T01:48:12.906Z,3.57
2019-03-16T01:50:39.858Z,3.43
2019-03-16T01:53:06.578Z,5.30
2019-03-16T01:55:33.288Z,3.07
2019-03-16T01:58:00.051Z,3.60
2019-03-16T02:00:26.739Z,4.20
2019-03-16T02:02:55.654Z,4.87
2019-03-16T02:05:21.812Z,4.10
2019-03-16T02:07:48.533Z,3.97
2019-03-16T02:10:15.224Z,3.07
2019-03-16T02:12:41.991Z,4.07
2019-03-16T02:15:08.721Z,4.23
2019-03-16T02:17:35.405Z,5.07
2019-03-16T02:20:02.113Z,4.37
2019-03-16T02:22:28.836Z,4.43
2019-03-16T02:24:55.553Z,3.87
2019-03-16T02:27:22.308Z,4.63
2019-03-16T02:29:48.926Z,3.60
2019-03-16T02:32:15.624Z,3.07
2019-03-16T02:34:42.414Z,2.97
2019-03-16T02:37:09.104Z,3.83
2019-03-16T02:39:35.802Z,3.83
2019-03-16T02:42:02.557Z,3.43
2019-03-16T02:44:29.248Z,3.80
2019-03-16T02:46:55.962Z,3.53
2019-03-16T02:49:22.706Z,3.90
2019-03-16T02:51:49.397Z,3.70
2019-03-16T02:54:16.045Z,3.40
2019-03-16T02:56:42.817Z,3.20
2019-03-16T02:59:09.469Z,4.00
2019-03-16T03:01:36.189Z,3.07
2019-03-16T03:04:03.130Z,3.90
2019-03-16T03:06:29.844Z,4.70
2019-03-16T03:08:56.534Z,3.70
2019-03-16T03:11:23.310Z,3.40
2019-03-16T03:13:50.065Z,4.20
2019-03-16T03:16:16.764Z,3.43
2019-03-16T03:18:43.516Z,3.37
2019-03-16T03:21:10.239Z,2.83
2019-03-16T03:23:36.943Z,3.60
2019-03-16T03:26:03.645Z,5.87
2019-03-16T03:28:30.362Z,3.73
2019-03-16T03:30:57.060Z,3.77
2019-03-16T03:33:23.837Z,4.33
2019-03-16T03:35:50.574Z,3.67
2019-03-16T03:38:17.248Z,3.27
2019-03-16T03:40:43.920Z,3.60
2019-03-16T03:43:10.570Z,4.33
2019-03-16T03:45:37.271Z,2.90
2019-03-16T03:48:04.056Z,4.30
2019-03-16T03:50:30.781Z,3.80
2019-03-16T03:52:57.644Z,3.50
2019-03-16T03:55:24.355Z,3.70
2019-03-16T03:57:51.049Z,3.67
2019-03-16T04:00:17.685Z,3.77
2019-03-16T04:02:44.434Z,3.50
2019-03-16T04:05:11.127Z,3.87
2019-03-16T04:07:37.834Z,3.87
2019-03-16T04:10:04.587Z,4.60
2019-03-16T04:12:31.322Z,5.67
2019-03-16T04:14:58.031Z,3.53
2019-03-16T04:17:24.788Z,4.00
2019-03-16T04:19:51.463Z,4.87
2019-03-16T04:22:18.191Z,4.53
2019-03-16T04:24:45.647Z,3.63
2019-03-16T04:27:16.308Z,3.57
2019-03-16T04:29:40.763Z,3.53
2019-03-16T04:32:07.559Z,4.30
2019-03-16T04:34:34.283Z,3.77
2019-03-16T04:37:00.990Z,3.83
2019-03-16T04:39:28.070Z,4.20
2019-03-16T04:41:54.771Z,4.60
2019-03-16T04:44:21.467Z,3.90
2019-03-16T04:46:48.220Z,3.67
2019-03-16T04:49:14.873Z,4.80
2019-03-16T04:51:41.561Z,3.20
2019-03-16T04:54:08.276Z,4.37
2019-03-16T04:56:35.001Z,4.00
2019-03-16T04:59:01.688Z,5.03
2019-03-16T05:01:28.400Z,3.43
2019-03-16T05:03:55.137Z,5.47
2019-03-16T05:06:21.836Z,4.47
2019-03-16T05:08:48.589Z,4.23
2019-03-16T05:11:15.234Z,5.00
2019-03-16T05:13:41.967Z,4.40
2019-03-16T05:16:08.714Z,4.20
2019-03-16T05:18:35.407Z,6.03
2019-03-16T05:21:02.069Z,3.83
2019-03-16T05:23:28.891Z,4.63
2019-03-16T05:25:55.549Z,4.07
2019-03-16T05:28:22.261Z,4.13
2019-03-16T05:30:49.030Z,2.90
2019-03-16T05:33:15.743Z,3.80
2019-03-16T05:35:42.488Z,3.60
2019-03-16T05:38:09.249Z,3.20
2019-03-16T05:40:35.942Z,4.67
2019-03-16T05:43:02.588Z,4.40
2019-03-16T05:45:29.371Z,3.83
2019-03-16T05:47:56.065Z,4.70
2019-03-16T05:50:22.691Z,4.37
2019-03-16T05:52:49.474Z,3.60
2019-03-16T05:55:16.288Z,4.27
2019-03-16T05:57:42.963Z,5.73
2019-03-16T06:00:10.120Z,3.73
2019-03-16T06:02:36.925Z,3.67
2019-03-16T06:05:10.292Z,4.77
2019-03-16T06:07:32.372Z,4.10
2019-03-16T06:09:59.097Z,4.43
2019-03-16T06:12:25.812Z,5.00
2019-03-16T06:14:52.585Z,4.03
2019-03-16T06:17:19.299Z,4.17
2019-03-16T06:19:46.024Z,4.10
2019-03-16T06:22:12.916Z,3.53
2019-03-16T06:24:39.606Z,3.50
2019-03-16T06:27:06.249Z,5.07
2019-03-16T06:29:33.043Z,4.50
2019-03-16T06:31:59.732Z,7.00
2019-03-16T06:34:26.352Z,6.33
2019-03-16T06:36:53.449Z,5.63
2019-03-16T06:39:20.166Z,4.17
2019-03-16T06:41:46.861Z,5.97
2019-03-16T06:44:13.698Z,5.50
2019-03-16T06:46:40.499Z,2.93
2019-03-16T06:49:07.206Z,10.20
2019-03-16T06:51:33.994Z,6.93
2019-03-16T06:54:00.725Z,8.63
2019-03-16T06:56:27.461Z,11.03
2019-03-16T06:58:54.247Z,8.53
2019-03-16T07:01:21.053Z,9.13
2019-03-16T07:03:47.793Z,8.30
2019-03-16T07:06:14.627Z,6.97
2019-03-16T07:08:41.371Z,6.57
2019-03-16T07:11:08.105Z,8.53
2019-03-16T07:13:34.957Z,8.10
2019-03-16T07:16:01.876Z,5.70
2019-03-16T07:18:30.302Z,6.57
2019-03-16T07:20:58.239Z,4.50
2019-03-16T07:23:25.060Z,5.70
2019-03-16T07:25:51.887Z,5.80
2019-03-16T07:28:18.670Z,5.97
2019-03-16T07:30:45.662Z,5.23
2019-03-16T07:33:12.595Z,6.47
2019-03-16T07:35:39.982Z,5.60
2019-03-16T07:38:06.662Z,4.53
2019-03-16T07:40:33.401Z,6.93
2019-03-16T07:43:01.206Z,5.70
2019-03-16T07:45:28.674Z,5.27
2019-03-16T07:47:55.368Z,5.30
2019-03-16T07:50:22.488Z,10.63
2019-03-16T07:52:49.426Z,6.63
2019-03-16T07:55:16.177Z,9.33
2019-03-16T07:57:43.121Z,8.47
2019-03-16T08:00:09.812Z,6.50
2019-03-16T08:02:36.458Z,5.80
2019-03-16T08:05:17.540Z,4.50
2019-03-16T08:07:33.403Z,4.73
2019-03-16T08:10:02.997Z,7.00
2019-03-16T08:12:28.595Z,6.60
2019-03-16T08:14:55.413Z,7.17
2019-03-16T08:17:22.164Z,10.57
2019-03-16T08:19:48.925Z,12.20
2019-03-16T08:22:15.739Z,11.57
2019-03-16T08:24:42.468Z,10.53
2019-03-16T08:27:09.306Z,9.80
2019-03-16T08:29:35.949Z,9.70
2019-03-16T08:32:03.101Z,8.67
2019-03-16T08:34:29.952Z,12.43
2019-03-16T08:36:56.787Z,8.27
2019-03-16T08:39:23.516Z,11.00
2019-03-16T08:41:50.365Z,8.87
2019-03-16T08:44:17.058Z,7.60
2019-03-16T08:46:43.847Z,12.03
2019-03-16T08:49:10.680Z,8.63
2019-03-16T08:51:37.436Z,6.23
2019-03-16T08:54:04.260Z,7.30
2019-03-16T08:56:30.973Z,10.83
2019-03-16T08:58:57.750Z,7.73
2019-03-16T09:01:24.478Z,10.87
2019-03-16T09:03:51.336Z,12.33
2019-03-16T09:06:18.032Z,8.07
2019-03-16T09:08:44.758Z,8.93
2019-03-16T09:11:11.651Z,9.53
2019-03-16T09:13:38.517Z,8.27
2019-03-16T09:16:05.336Z,12.80
2019-03-16T09:18:32.487Z,12.87
2019-03-16T09:20:59.323Z,9.67
2019-03-16T09:23:26.054Z,10.40
2019-03-16T09:25:52.894Z,8.97
2019-03-16T09:28:19.597Z,11.20
2019-03-16T09:30:46.374Z,7.40
2019-03-16T09:33:13.145Z,13.73
2019-03-16T09:35:39.823Z,8.90
2019-03-16T09:38:06.702Z,9.33
2019-03-16T09:40:33.868Z,6.30
2019-03-16T09:43:00.596Z,5.57
2019-03-16T09:45:27.286Z,6.57
2019-03-16T09:47:53.959Z,6.73
2019-03-16T09:50:20.587Z,5.60
2019-03-16T09:52:47.300Z,4.90
2019-03-16T09:55:14.059Z,5.13
2019-03-16T09:57:40.785Z,4.87
2019-03-16T10:00:07.537Z,5.00
2019-03-16T10:02:34.297Z,5.90
2019-03-16T10:05:01.034Z,5.10
2019-03-16T10:07:27.743Z,5.57
2019-03-16T10:09:54.507Z,6.23
2019-03-16T10:12:21.142Z,5.90
2019-03-16T10:14:47.839Z,6.63
2019-03-16T10:17:14.520Z,5.27
2019-03-16T10:19:41.186Z,6.40
2019-03-16T10:22:07.862Z,6.03
2019-03-16T10:24:34.541Z,6.17
2019-03-16T10:27:01.242Z,6.43
2019-03-16T10:29:27.969Z,6.53
2019-03-16T10:31:54.814Z,6.93
2019-03-16T10:34:21.521Z,6.10
2019-03-16T10:36:48.233Z,4.73
2019-03-16T10:39:15.090Z,5.27
2019-03-16T10:41:41.779Z,5.57
2019-03-16T10:44:08.479Z,4.50
2019-03-16T10:46:35.304Z,6.63
2019-03-16T10:49:02.035Z,4.10
2019-03-16T10:51:28.726Z,8.83
2019-03-16T10:53:55.479Z,5.90
2019-03-16T10:56:22.179Z,5.70
2019-03-16T10:58:56.654Z,4.70
2019-03-16T11:01:17.325Z,5.10
2019-03-16T11:03:44.023Z,3.93
2019-03-16T11:06:10.637Z,4.43
2019-03-16T11:08:37.349Z,5.90
2019-03-16T11:11:04.050Z,5.67
2019-03-16T11:13:30.708Z,7.10
2019-03-16T11:15:57.448Z,7.23
2019-03-16T11:18:24.179Z,5.53
2019-03-16T11:20:50.872Z,5.73
2019-03-16T11:23:17.890Z,8.07
2019-03-16T11:25:44.596Z,5.80
2019-03-16T11:28:11.288Z,5.40
2019-03-16T11:30:38.149Z,7.33
2019-03-16T11:33:04.869Z,5.47
2019-03-16T11:35:31.573Z,6.53
2019-03-16T11:37:58.368Z,6.70
2019-03-16T11:40:26.768Z,5.57
2019-03-16T11:42:53.598Z,5.30
2019-03-16T11:45:20.348Z,7.63
2019-03-16T11:47:47.054Z,6.07
2019-03-16T11:50:15.091Z,5.20
2019-03-16T11:52:42.380Z,5.40
2019-03-16T11:55:09.440Z,5.90
2019-03-16T11:57:37.390Z,4.80
2019-03-16T12:00:04.342Z,6.13
2019-03-16T12:02:31.106Z,6.80
2019-03-16T12:04:57.830Z,6.13
2019-03-16T12:07:24.590Z,5.03
2019-03-16T12:09:51.346Z,5.90
2019-03-16T12:12:18.078Z,5.35
2019-03-16T12:14:44.913Z,5.25
2019-03-16T12:17:12.742Z,4.60
2019-03-16T12:19:39.432Z,4.53
2019-03-16T12:22:06.658Z,6.37
2019-03-16T12:24:33.363Z,5.53
2019-03-16T12:27:00.058Z,6.55
2019-03-16T12:29:34.013Z,6.75
2019-03-16T12:31:55.200Z,5.65
2019-03-16T12:34:21.898Z,5.83
2019-03-16T12:36:48.643Z,5.65
2019-03-16T12:39:15.369Z,6.70
2019-03-16T12:41:42.093Z,6.08
2019-03-16T12:44:08.876Z,6.87
2019-03-16T12:46:35.603Z,4.83
2019-03-16T12:49:02.319Z,5.08
2019-03-16T12:51:29.101Z,6.42
2019-03-16T12:53:55.830Z,7.43
2019-03-16T12:56:24.149Z,6.97
2019-03-16T12:58:50.988Z,6.30
2019-03-16T13:01:18.261Z,6.60
2019-03-16T13:03:44.993Z,4.87
2019-03-16T13:06:12.162Z,5.23
2019-03-16T13:08:39.055Z,6.50
2019-03-16T13:11:05.762Z,4.70
2019-03-16T13:13:33.126Z,5.17
2019-03-16T13:16:01.816Z,8.57
2019-03-16T13:18:28.796Z,5.23
2019-03-16T13:20:56.279Z,6.17
2019-03-16T13:23:22.998Z,7.57
2019-03-16T13:25:51.127Z,8.67
2019-03-16T13:28:17.933Z,5.83
2019-03-16T13:30:44.623Z,6.10
2019-03-16T13:33:11.321Z,4.10
2019-03-16T13:35:38.188Z,4.90
2019-03-16T13:38:05.734Z,5.73
2019-03-16T13:40:32.426Z,5.07
2019-03-16T13:42:59.220Z,4.97
2019-03-16T13:45:25.907Z,10.07
2019-03-16T13:47:52.602Z,6.13
2019-03-16T13:50:19.372Z,6.30
2019-03-16T13:52:46.398Z,5.57
2019-03-16T13:55:13.108Z,7.03
2019-03-16T13:57:39.956Z,6.63
2019-03-16T14:00:11.654Z,9.67
2019-03-16T14:02:35.306Z,5.47
2019-03-16T14:05:02.084Z,5.87
2019-03-16T14:07:29.116Z,6.30
2019-03-16T14:09:55.830Z,10.30
2019-03-16T14:12:22.639Z,6.93
2019-03-16T14:14:49.423Z,9.60
2019-03-16T14:17:16.119Z,6.03
2019-03-16T14:19:42.917Z,5.07
2019-03-16T14:22:09.645Z,5.17
2019-03-16T14:24:36.359Z,5.37
2019-03-16T14:27:03.829Z,5.87
2019-03-16T14:29:30.559Z,6.43
2019-03-16T14:31:57.284Z,6.00
2019-03-16T14:34:24.070Z,6.47
2019-03-16T14:36:50.798Z,5.73
2019-03-16T14:39:17.488Z,5.73
2019-03-16T14:41:44.239Z,5.37
2019-03-16T14:44:11.386Z,9.87
2019-03-16T14:46:38.284Z,6.37
2019-03-16T14:49:05.117Z,5.90
2019-03-16T14:51:31.822Z,7.03
2019-03-16T14:53:58.510Z,7.20
2019-03-16T14:56:25.257Z,7.13
2019-03-16T14:58:51.961Z,6.33
2019-03-16T15:01:18.688Z,6.73
2019-03-16T15:03:45.475Z,6.13
2019-03-16T15:06:12.207Z,7.03
2019-03-16T15:08:38.918Z,10.50
2019-03-16T15:11:05.772Z,11.87
2019-03-16T15:13:32.465Z,8.40
2019-03-16T15:15:59.208Z,10.77
2019-03-16T15:18:26.120Z,12.80
2019-03-16T15:20:52.922Z,14.67
2019-03-16T15:23:19.641Z,12.53
2019-03-16T15:25:46.458Z,10.07
2019-03-16T15:28:13.148Z,10.03
2019-03-16T15:30:50.094Z,9.77
2019-03-16T15:33:08.287Z,10.20
2019-03-16T15:35:35.039Z,9.63
2019-03-16T15:38:02.053Z,12.67
2019-03-16T15:40:28.894Z,9.73
2019-03-16T15:42:55.743Z,11.67
2019-03-16T15:45:22.445Z,12.70
2019-03-16T15:47:49.221Z,10.97
2019-03-16T15:50:15.944Z,12.53
2019-03-16T15:52:42.684Z,12.13
2019-03-16T15:55:09.524Z,11.47
2019-03-16T15:57:36.152Z,8.77
2019-03-16T16:00:02.905Z,10.33
2019-03-16T16:02:29.753Z,9.47
2019-03-16T16:04:56.488Z,8.20
2019-03-16T16:07:23.166Z,10.37
2019-03-16T16:09:50.112Z,9.07
2019-03-16T16:12:16.829Z,13.13
2019-03-16T16:14:43.544Z,11.27
2019-03-16T16:17:10.385Z,11.03
2019-03-16T16:19:37.237Z,10.97
2019-03-16T16:22:03.964Z,14.37
2019-03-16T16:24:30.976Z,10.73
2019-03-16T16:26:57.752Z,9.10
2019-03-16T16:29:24.449Z,9.07
2019-03-16T16:31:51.857Z,11.53
2019-03-16T16:34:18.548Z,8.03
2019-03-16T16:36:45.330Z,10.57
2019-03-16T16:39:14.404Z,10.03
2019-03-16T16:41:40.542Z,9.23
2019-03-16T16:44:07.303Z,11.70
2019-03-16T16:46:34.145Z,11.83
2019-03-16T16:49:00.874Z,9.43
2019-03-16T16:51:27.609Z,11.20
2019-03-16T16:53:54.443Z,11.77
2019-03-16T16:56:21.092Z,12.17
2019-03-16T16:58:47.850Z,16.20
2019-03-16T17:01:14.967Z,10.73
2019-03-16T17:03:41.723Z,11.63
2019-03-16T17:06:08.451Z,12.30
2019-03-16T17:08:35.389Z,9.37
2019-03-16T17:11:02.015Z,7.00
2019-03-16T17:13:28.713Z,9.37
2019-03-16T17:15:55.876Z,13.07
2019-03-16T17:18:22.664Z,10.73
2019-03-16T17:20:49.397Z,14.97
2019-03-16T17:23:16.110Z,12.13
2019-03-16T17:25:42.889Z,10.43
2019-03-16T17:28:11.612Z,12.57
2019-03-16T17:30:38.447Z,11.00
2019-03-16T17:33:05.250Z,11.60
2019-03-16T17:35:31.993Z,13.97
2019-03-16T17:37:58.822Z,10.47
2019-03-16T17:40:25.572Z,13.03
2019-03-16T17:42:52.306Z,14.70
2019-03-16T17:45:19.245Z,11.93
2019-03-16T17:47:45.969Z,8.50
2019-03-16T17:50:12.734Z,12.33
2019-03-16T17:52:39.565Z,12.70
2019-03-16T17:55:06.312Z,12.53
2019-03-16T17:57:33.048Z,14.80
2019-03-16T18:02:51.776Z,12.40
2019-03-16T18:05:14.191Z,13.20
2019-03-16T18:07:41.009Z,12.57
2019-03-16T18:10:07.851Z,9.77
2019-03-16T18:12:34.736Z,11.13
2019-03-16T18:15:01.541Z,12.83
2019-03-16T18:17:28.255Z,14.47
2019-03-16T18:19:54.929Z,11.13
2019-03-16T18:22:21.633Z,14.97
2019-03-16T18:24:48.371Z,9.83
2019-03-16T18:27:15.439Z,12.30
2019-03-16T18:29:42.204Z,8.50
2019-03-16T18:32:08.899Z,10.53
2019-03-16T18:34:35.648Z,8.47
2019-03-16T18:37:02.310Z,11.67
2019-03-16T18:39:29.026Z,12.60
2019-03-16T18:41:55.886Z,10.00
2019-03-16T18:44:23.513Z,10.93
2019-03-16T18:46:50.290Z,9.43
2019-03-16T18:49:17.044Z,11.00
2019-03-16T18:51:43.758Z,12.77
2019-03-16T18:54:10.444Z,11.40
2019-03-16T18:56:37.311Z,10.47
2019-03-16T18:59:04.073Z,13.17
2019-03-16T19:01:30.908Z,14.33
2019-03-16T19:03:57.848Z,14.23
2019-03-16T19:06:24.578Z,14.33
2019-03-16T19:08:51.320Z,16.27
2019-03-16T19:11:18.175Z,13.17
2019-03-16T19:13:45.014Z,12.43
2019-03-16T19:16:11.825Z,14.13
2019-03-16T19:18:38.901Z,14.73
2019-03-16T19:21:05.641Z,11.07
2019-03-16T19:23:32.482Z,14.03
2019-03-16T19:25:59.585Z,13.07
2019-03-16T19:28:26.355Z,10.57
2019-03-16T19:30:53.079Z,11.97
2019-03-16T19:33:19.953Z,14.40
2019-03-16T19:35:46.685Z,11.53
2019-03-16T19:38:13.636Z,11.93
2019-03-16T19:40:40.529Z,11.87
2019-03-16T19:43:07.306Z,8.07
2019-03-16T19:45:34.026Z,10.73
2019-03-16T19:48:03.122Z,8.03
2019-03-16T19:50:29.958Z,9.57
2019-03-16T19:52:56.709Z,9.07
2019-03-16T19:55:23.681Z,9.60
2019-03-16T19:57:50.420Z,12.67
2019-03-16T20:00:17.259Z,11.90
2019-03-16T20:02:50.275Z,12.30
2019-03-16T20:05:13.156Z,11.37
2019-03-16T20:07:39.936Z,11.93
2019-03-16T20:10:06.797Z,9.67
2019-03-16T20:12:33.617Z,11.77
2019-03-16T20:15:00.463Z,10.77
2019-03-16T20:17:27.492Z,15.03
2019-03-16T20:19:54.165Z,12.17
2019-03-16T20:22:21.012Z,13.07
2019-03-16T20:24:48.058Z,11.43
2019-03-16T20:27:14.707Z,9.87
2019-03-16T20:29:41.506Z,13.80
2019-03-16T20:32:09.015Z,13.47
2019-03-16T20:34:35.800Z,10.60
2019-03-16T20:37:02.544Z,11.13
2019-03-16T20:39:29.596Z,13.83
2019-03-16T20:41:56.319Z,12.10
2019-03-16T20:44:23.065Z,11.17
2019-03-16T20:46:50.081Z,10.60
2019-03-16T20:49:16.860Z,9.63
2019-03-16T20:51:43.809Z,13.90
2019-03-16T20:54:10.652Z,11.27
2019-03-16T20:56:37.381Z,9.80
2019-03-16T20:59:04.226Z,10.20
2019-03-16T21:01:31.570Z,10.90
2019-03-16T21:03:58.424Z,10.50
2019-03-16T21:06:25.256Z,12.73
2019-03-16T21:09:02.647Z,13.10
2019-03-16T21:11:20.673Z,9.33
2019-03-16T21:13:47.554Z,13.27
2019-03-16T21:16:14.367Z,12.07
2019-03-16T21:18:41.098Z,15.50
2019-03-16T21:21:07.836Z,13.83
2019-03-16T21:23:34.837Z,12.80
2019-03-16T21:26:01.642Z,9.90
2019-03-16T21:28:29.084Z,11.53
2019-03-16T21:30:57.565Z,14.20
2019-03-16T21:33:29.449Z,11.80
2019-03-16T21:35:52.876Z,11.07
2019-03-16T21:38:20.451Z,11.57
2019-03-16T21:40:48.096Z,11.47
2019-03-16T21:43:14.800Z,10.30
2019-03-16T21:45:41.590Z,12.33
2019-03-16T21:48:08.429Z,11.87
2019-03-16T21:50:35.275Z,12.43
2019-03-16T21:53:02.113Z,12.30
2019-03-16T21:55:28.983Z,13.03
2019-03-16T21:57:56.193Z,10.63
2019-03-16T22:00:23.114Z,11.10
2019-03-16T22:02:49.807Z,10.53
2019-03-16T22:05:16.632Z,14.60
2019-03-16T22:07:43.471Z,13.83
2019-03-16T22:10:10.206Z,11.63
2019-03-16T22:12:36.953Z,11.60
2019-03-16T22:15:03.813Z,13.40
2019-03-16T22:17:30.648Z,12.43
2019-03-16T22:19:57.358Z,12.97
2019-03-16T22:22:24.105Z,14.40
2019-03-16T22:24:50.836Z,11.70
2019-03-16T22:27:17.586Z,12.73
2019-03-16T22:29:44.528Z,12.60
2019-03-16T22:32:11.419Z,12.13
2019-03-16T22:34:38.105Z,12.63
2019-03-16T22:37:04.974Z,13.47
2019-03-16T22:39:31.680Z,14.20
2019-03-16T22:41:58.322Z,14.63
2019-03-16T22:44:25.214Z,13.70
2019-03-16T22:46:52.023Z,12.27
2019-03-16T22:49:18.741Z,13.70
2019-03-16T22:51:45.486Z,14.47
2019-03-16T22:54:12.292Z,13.10
2019-03-16T22:56:39.078Z,12.33
2019-03-16T22:59:05.905Z,13.43
2019-03-16T23:01:32.758Z,13.93
2019-03-16T23:04:06.782Z,13.00
2019-03-16T23:06:27.964Z,14.83
2019-03-16T23:08:54.703Z,13.77
2019-03-16T23:11:21.371Z,14.60
2019-03-16T23:13:48.202Z,13.97
2019-03-16T23:16:14.944Z,12.80
2019-03-16T23:18:41.622Z,13.63
2019-03-16T23:21:08.514Z,16.00
2019-03-16T23:23:35.255Z,14.17
2019-03-16T23:26:02.095Z,13.87
2019-03-16T23:28:29.036Z,13.63
2019-03-16T23:30:55.931Z,12.77
2019-03-16T23:33:22.828Z,12.30
2019-03-16T23:35:49.668Z,14.47
2019-03-16T23:38:16.313Z,13.63
2019-03-16T23:40:43.044Z,12.93
2019-03-16T23:43:09.840Z,13.70
2019-03-16T23:45:36.570Z,15.60
2019-03-16T23:48:03.253Z,15.43
2019-03-16T23:50:30.089Z,13.07
2019-03-16T23:52:56.807Z,13.97
2019-03-16T23:55:23.537Z,13.70
2019-03-16T23:57:50.811Z,13.73
